Time;durP1;ratioP1;P1;durP2;ratioP2;P2;SDS_P1;SDS_P2;PMS_P1;PMS_P2;Temp;Humidity;BMP_temperature;BMP_pressure;BME280_temperature;BME280_humidity;BME280_pressure;Samples;Min_cycle;Max_cycle;Signal;HPM_P1;HPM_P2
2021/06/06 00:01:17;;;;;;;54.17;27.88;;;18.10;99.90;;;;;;5031979;28;20030;-65
2021/06/06 00:03:50;;;;;;;52.58;25.48;;;18.10;99.90;;;;;;5031996;28;20038;-66
2021/06/06 00:06:30;;;;;;;52.25;26.05;;;18.10;99.90;;;;;;5031743;28;20094;-66
2021/06/06 00:08:58;;;;;;;53.90;27.02;;;18.10;99.90;;;;;;5031753;28;20033;-66
2021/06/06 00:11:28;;;;;;;47.78;26.88;;;18.10;99.90;;;;;;5047082;28;20076;-66
2021/06/06 00:13:58;;;;;;;54.45;27.17;;;18.10;99.90;;;;;;5034881;28;20036;-66
2021/06/06 00:16:30;;;;;;;57.95;28.35;;;18.10;99.90;;;;;;5035778;28;20026;-66
2021/06/06 00:18:56;;;;;;;52.50;28.20;;;18.00;99.90;;;;;;5035477;28;20099;-65
2021/06/06 00:21:25;;;;;;;55.95;28.13;;;18.00;99.90;;;;;;5050711;28;20033;-66
2021/06/06 00:23:52;;;;;;;52.42;28.15;;;18.00;99.90;;;;;;5035236;28;20037;-66
2021/06/06 00:26:17;;;;;;;56.28;31.02;;;18.00;99.90;;;;;;5035615;28;20033;-66
2021/06/06 00:28:43;;;;;;;56.00;28.63;;;18.00;99.90;;;;;;5035246;28;20382;-66
2021/06/06 00:31:10;;;;;;;56.28;27.50;;;18.00;99.90;;;;;;5035455;28;20032;-66
2021/06/06 00:33:38;;;;;;;55.88;28.85;;;18.00;99.90;;;;;;5035062;28;20029;-66
2021/06/06 00:36:07;;;;;;;55.53;30.13;;;18.00;99.90;;;;;;5050767;28;20591;-66
2021/06/06 00:38:33;;;;;;;56.92;30.98;;;18.00;99.90;;;;;;5034993;28;20037;-66
2021/06/06 00:41:00;;;;;;;51.20;28.35;;;18.00;99.90;;;;;;5035071;28;20342;-66
2021/06/06 00:43:27;;;;;;;56.67;30.13;;;18.00;99.90;;;;;;5035247;28;20040;-66
2021/06/06 00:45:53;;;;;;;59.75;29.90;;;18.00;99.90;;;;;;5035004;28;20083;-66
2021/06/06 00:48:20;;;;;;;63.67;32.80;;;17.90;99.90;;;;;;5034866;28;20033;-66
2021/06/06 00:50:50;;;;;;;57.72;31.65;;;17.90;99.90;;;;;;5034730;28;20428;-66
2021/06/06 00:53:41;;;;;;;62.03;30.85;;;18.00;99.90;;;;;;5035119;28;20055;-66
2021/06/06 00:56:13;;;;;;;59.20;31.83;;;17.90;99.90;;;;;;5034811;28;20033;-66
2021/06/06 00:58:42;;;;;;;63.80;33.22;;;17.90;99.90;;;;;;5034700;28;20509;-66
2021/06/06 01:01:11;;;;;;;60.53;31.42;;;17.90;99.90;;;;;;5034952;28;20033;-66
2021/06/06 01:03:37;;;;;;;68.20;34.80;;;17.80;99.90;;;;;;5049501;28;20041;-66
2021/06/06 01:06:09;;;;;;;71.03;35.08;;;17.70;99.90;;;;;;5034886;28;20033;-66
2021/06/06 01:08:38;;;;;;;73.43;37.53;;;17.60;99.90;;;;;;5034366;28;20033;-66
2021/06/06 01:11:16;;;;;;;76.85;36.67;;;17.60;99.90;;;;;;5049777;28;20026;-66
2021/06/06 01:13:59;;;;;;;83.03;39.67;;;17.40;99.90;;;;;;5034546;28;20034;-66
2021/06/06 01:16:41;;;;;;;92.53;39.13;;;17.20;99.90;;;;;;5049696;28;20124;-66
2021/06/06 01:19:25;;;;;;;97.25;42.53;;;17.20;99.90;;;;;;5034379;28;20112;-65
2021/06/06 01:22:36;;;;;;;92.82;42.17;;;17.10;99.90;;;;;;5049027;28;20176;-65
2021/06/06 01:25:28;;;;;;;88.38;41.13;;;17.20;99.90;;;;;;5033965;28;20040;-65
2021/06/06 01:28:01;;;;;;;90.88;43.25;;;17.10;99.90;;;;;;5048555;28;20033;-65
2021/06/06 01:30:32;;;;;;;100.80;43.63;;;17.10;99.90;;;;;;5034128;28;20048;-65
2021/06/06 01:33:08;;;;;;;101.07;41.00;;;17.20;99.90;;;;;;5049578;28;20080;-65
2021/06/06 01:35:49;;;;;;;90.57;40.58;;;17.10;99.90;;;;;;5034277;28;20087;-66
2021/06/06 01:38:28;;;;;;;102.38;45.08;;;17.20;99.90;;;;;;5034019;28;20051;-66
2021/06/06 01:41:00;;;;;;;99.15;43.85;;;17.20;99.90;;;;;;5048528;28;20044;-65
2021/06/06 01:43:36;;;;;;;95.10;43.38;;;17.20;99.90;;;;;;5049286;28;20034;-65
2021/06/06 01:46:09;;;;;;;99.45;46.10;;;17.20;99.90;;;;;;5034184;28;20026;-65
2021/06/06 01:48:39;;;;;;;101.45;44.72;;;17.20;99.90;;;;;;5048641;28;20043;-65
2021/06/06 01:51:12;;;;;;;97.80;45.65;;;17.20;99.90;;;;;;5034141;28;20025;-66
2021/06/06 01:53:43;;;;;;;103.13;45.10;;;17.20;99.90;;;;;;5048667;28;20065;-66
2021/06/06 01:56:10;;;;;;;105.35;47.22;;;17.20;99.90;;;;;;5048930;28;20029;-65
2021/06/06 01:58:37;;;;;;;100.78;46.95;;;17.30;99.90;;;;;;5048860;28;20057;-65
2021/06/06 02:01:13;;;;;;;105.57;47.38;;;17.20;99.90;;;;;;5048854;28;20029;-66
2021/06/06 02:03:40;;;;;;;101.50;45.42;;;17.20;99.90;;;;;;5033414;28;20489;-65
2021/06/06 02:06:11;;;;;;;109.07;48.00;;;17.10;99.90;;;;;;5048988;28;20029;-65
2021/06/06 02:08:39;;;;;;;104.63;46.67;;;17.20;99.90;;;;;;5032192;28;20037;-65
2021/06/06 02:11:14;;;;;;;112.80;48.33;;;17.10;99.90;;;;;;5048869;28;20052;-66
2021/06/06 02:13:56;;;;;;;107.30;46.38;;;17.10;99.90;;;;;;5033234;28;20106;-65
2021/06/06 02:16:30;;;;;;;101.82;43.67;;;17.10;99.90;;;;;;5048511;28;20389;-65
2021/06/06 02:18:56;;;;;;;107.32;46.72;;;17.10;99.90;;;;;;5048133;28;20032;-65
2021/06/06 02:21:22;;;;;;;118.78;50.45;;;17.00;99.90;;;;;;5033241;28;20034;-65
2021/06/06 02:23:49;;;;;;;110.47;50.78;;;17.00;99.90;;;;;;5033135;28;20453;-65
2021/06/06 02:26:45;;;;;;;118.65;50.40;;;17.00;99.90;;;;;;5033403;28;20037;-65
2021/06/06 02:29:38;;;;;;;114.82;49.67;;;16.90;99.90;;;;;;5045013;28;20083;-65
2021/06/06 02:32:42;;;;;;;119.50;50.88;;;16.80;99.90;;;;;;5047732;28;20033;-65
2021/06/06 02:35:17;;;;;;;114.15;49.60;;;16.90;99.90;;;;;;5046272;28;20477;-64
2021/06/06 02:38:08;;;;;;;113.32;49.78;;;17.00;99.90;;;;;;5047699;28;20068;-64
2021/06/06 02:40:50;;;;;;;108.65;48.90;;;16.90;99.90;;;;;;5033016;28;20122;-64
2021/06/06 02:43:52;;;;;;;122.18;50.88;;;16.90;99.90;;;;;;5033110;28;20041;-64
2021/06/06 02:46:21;;;;;;;122.78;52.08;;;16.90;99.90;;;;;;5032707;28;20552;-65
2021/06/06 02:48:56;;;;;;;120.90;52.60;;;16.80;99.90;;;;;;5047693;28;20151;-65
2021/06/06 02:51:25;;;;;;;115.63;50.20;;;16.80;99.90;;;;;;5047677;28;20025;-65
2021/06/06 02:54:02;;;;;;;119.78;51.15;;;16.80;99.90;;;;;;5047545;28;20034;-64
2021/06/06 02:56:36;;;;;;;124.55;52.33;;;16.80;99.90;;;;;;5047541;28;20432;-64
2021/06/06 02:59:25;;;;;;;120.82;52.60;;;16.80;99.90;;;;;;5047357;28;20041;-65
2021/06/06 03:02:00;;;;;;;117.00;51.75;;;16.70;99.90;;;;;;5046739;28;20060;-65
2021/06/06 03:04:30;;;;;;;122.43;51.40;;;16.60;99.90;;;;;;5032384;28;20033;-65
2021/06/06 03:07:18;;;;;;;133.70;54.60;;;16.60;99.90;;;;;;5032366;28;20172;-65
2021/06/06 03:09:44;;;;;;;133.55;50.80;;;16.60;99.90;;;;;;5032117;28;20039;-64
2021/06/06 03:12:12;;;;;;;126.85;52.88;;;16.60;99.90;;;;;;5032226;28;20038;-65
2021/06/06 03:14:42;;;;;;;129.60;53.50;;;16.60;99.90;;;;;;5047438;28;20045;-65
2021/06/06 03:17:21;;;;;;;127.20;53.63;;;16.60;99.90;;;;;;5047416;28;20120;-65
2021/06/06 03:19:51;;;;;;;132.98;52.65;;;16.70;99.90;;;;;;5046684;28;20061;-65
2021/06/06 03:22:27;;;;;;;132.27;54.55;;;16.60;99.90;;;;;;5047274;28;20029;-65
2021/06/06 03:25:04;;;;;;;120.93;50.90;;;16.70;99.90;;;;;;5046894;28;20033;-64
2021/06/06 03:27:38;;;;;;;117.18;52.17;;;16.70;99.90;;;;;;5046856;28;20464;-65
2021/06/06 03:30:47;;;;;;;123.82;51.30;;;16.70;99.90;;;;;;5031980;28;20128;-65
2021/06/06 03:33:23;;;;;;;114.45;52.05;;;16.60;99.90;;;;;;5032091;28;20091;-65
2021/06/06 03:35:49;;;;;;;120.72;53.15;;;16.70;99.90;;;;;;5032154;28;20164;-66
2021/06/06 03:38:16;;;;;;;120.95;51.72;;;16.70;99.90;;;;;;5032093;28;20052;-66
2021/06/06 03:40:46;;;;;;;124.75;54.13;;;16.60;99.90;;;;;;5032022;28;20109;-66
2021/06/06 03:43:16;;;;;;;134.77;55.72;;;16.70;99.90;;;;;;5047140;28;20049;-67
2021/06/06 03:45:42;;;;;;;123.57;52.92;;;16.70;99.90;;;;;;5032160;28;20599;-67
2021/06/06 03:48:09;;;;;;;116.95;52.75;;;16.70;99.90;;;;;;5035543;28;20049;-66
2021/06/06 03:50:39;;;;;;;123.35;53.92;;;16.70;99.90;;;;;;5035902;28;20033;-66
2021/06/06 03:53:06;;;;;;;115.28;50.42;;;16.70;99.90;;;;;;5036138;28;20026;-66
2021/06/06 03:55:32;;;;;;;122.15;52.83;;;16.70;99.90;;;;;;5035970;28;20029;-66
2021/06/06 03:57:58;;;;;;;113.70;53.10;;;16.70;99.90;;;;;;5036028;28;20072;-66
2021/06/06 04:00:35;;;;;;;118.50;50.97;;;16.80;99.90;;;;;;5035843;28;20037;-66
2021/06/06 04:03:02;;;;;;;109.88;49.38;;;16.70;99.90;;;;;;5035811;28;20046;-66
2021/06/06 04:05:29;;;;;;;119.35;52.50;;;16.70;99.90;;;;;;5035761;28;20436;-67
2021/06/06 04:07:55;;;;;;;109.30;50.25;;;16.80;99.90;;;;;;5035581;28;20094;-67
2021/06/06 04:10:22;;;;;;;108.85;50.78;;;16.80;99.90;;;;;;5035106;28;20037;-67
2021/06/06 04:12:48;;;;;;;109.15;50.60;;;16.70;99.90;;;;;;5035686;28;20034;-67
2021/06/06 04:15:16;;;;;;;115.10;51.65;;;16.70;99.90;;;;;;5051096;28;20176;-67
2021/06/06 04:17:42;;;;;;;118.32;53.33;;;16.70;99.90;;;;;;5035575;28;20034;-67
2021/06/06 04:20:10;;;;;;;108.28;51.65;;;16.60;99.90;;;;;;5051160;28;20489;-67
2021/06/06 04:22:37;;;;;;;125.53;53.95;;;16.60;99.90;;;;;;5035393;28;20045;-67
2021/06/06 04:25:08;;;;;;;113.22;52.50;;;16.70;99.90;;;;;;5035494;28;20060;-67
2021/06/06 04:27:34;;;;;;;109.32;51.75;;;16.70;99.90;;;;;;5050487;28;20104;-67
2021/06/06 04:30:00;;;;;;;117.10;53.28;;;16.60;99.90;;;;;;5034922;28;20050;-67
2021/06/06 04:32:26;;;;;;;109.03;52.20;;;16.60;99.90;;;;;;5050944;28;20032;-67
2021/06/06 04:34:52;;;;;;;120.95;55.90;;;16.60;99.90;;;;;;5034944;28;20029;-67
2021/06/06 04:37:19;;;;;;;113.30;50.63;;;16.50;99.90;;;;;;5035424;28;20033;-67
2021/06/06 04:39:45;;;;;;;110.68;51.17;;;16.60;99.90;;;;;;5034940;28;20033;-67
2021/06/06 04:42:17;;;;;;;114.35;51.35;;;16.60;99.90;;;;;;5035405;28;20033;-67
2021/06/06 04:44:42;;;;;;;;;;;16.60;99.90;;;;;;5035776;28;20045;-66
2021/06/06 04:47:09;;;;;;;108.10;50.08;;;16.60;99.90;;;;;;5034919;28;19963;-67
2021/06/06 04:49:41;;;;;;;103.25;49.30;;;16.70;99.90;;;;;;5035103;28;20041;-67
2021/06/06 04:52:11;;;;;;;105.95;50.28;;;16.70;99.90;;;;;;5033547;28;20067;-66
2021/06/06 04:54:37;;;;;;;96.63;49.15;;;16.60;99.90;;;;;;5034956;28;20029;-66
2021/06/06 04:57:04;;;;;;;101.97;48.03;;;16.60;99.90;;;;;;5034633;28;20055;-67
2021/06/06 04:59:31;;;;;;;98.22;49.10;;;16.60;99.90;;;;;;5034343;28;20099;-66
2021/06/06 05:01:57;;;;;;;107.35;50.63;;;16.60;99.90;;;;;;5034794;28;20433;-66
2021/06/06 05:04:23;;;;;;;98.78;50.63;;;16.60;99.90;;;;;;5034663;28;20029;-66
2021/06/06 05:06:49;;;;;;;99.32;49.47;;;16.50;99.90;;;;;;5034736;28;20021;-67
2021/06/06 05:09:15;;;;;;;100.07;49.67;;;16.60;99.90;;;;;;5034548;28;20033;-67
2021/06/06 05:11:41;;;;;;;98.57;47.85;;;16.50;99.90;;;;;;5034771;28;20029;-66
2021/06/06 05:14:07;;;;;;;100.15;48.67;;;16.50;99.90;;;;;;5034709;28;20029;-66
2021/06/06 05:16:33;;;;;;;108.70;52.17;;;16.60;99.90;;;;;;5034482;28;20393;-66
2021/06/06 05:18:59;;;;;;;97.55;49.20;;;16.60;99.90;;;;;;5034429;28;20103;-67
2021/06/06 05:21:26;;;;;;;102.13;49.97;;;16.60;99.90;;;;;;5034283;28;20076;-66
2021/06/06 05:23:51;;;;;;;97.55;49.67;;;16.70;99.90;;;;;;5034087;28;20037;-66
2021/06/06 05:26:18;;;;;;;94.13;48.75;;;16.70;99.90;;;;;;5034140;28;20393;-66
2021/06/06 05:28:45;;;;;;;85.80;46.00;;;16.70;99.90;;;;;;5049365;28;20547;-66
2021/06/06 05:31:18;;;;;;;84.35;44.42;;;16.70;99.90;;;;;;5034306;28;20113;-66
2021/06/06 05:33:44;;;;;;;84.03;43.67;;;16.70;99.90;;;;;;5034259;28;20080;-66
2021/06/06 05:36:10;;;;;;;90.68;46.33;;;16.70;99.90;;;;;;5034225;28;20044;-66
2021/06/06 05:38:37;;;;;;;90.68;45.10;;;16.60;99.90;;;;;;5034087;28;20033;-66
2021/06/06 05:41:04;;;;;;;92.88;46.97;;;16.70;99.90;;;;;;5033803;28;20433;-66
2021/06/06 05:43:30;;;;;;;91.10;45.65;;;16.70;99.90;;;;;;5034317;28;20369;-66
2021/06/06 05:45:57;;;;;;;96.43;45.50;;;16.70;99.90;;;;;;5033676;28;20091;-66
2021/06/06 05:48:25;;;;;;;94.57;47.65;;;16.60;99.90;;;;;;5034180;28;20543;-66
2021/06/06 05:50:56;;;;;;;97.38;45.00;;;16.60;99.90;;;;;;5033950;28;20039;-66
2021/06/06 05:53:22;;;;;;;93.40;45.78;;;16.50;99.90;;;;;;5033036;28;20036;-66
2021/06/06 05:55:48;;;;;;;79.60;39.47;;;16.50;99.90;;;;;;5033961;28;20037;-64
2021/06/06 05:58:15;;;;;;;84.75;42.88;;;16.50;99.90;;;;;;5033743;28;20504;-65
2021/06/06 06:00:46;;;;;;;80.65;41.03;;;16.60;99.90;;;;;;5033532;28;20038;-62
2021/06/06 06:03:13;;;;;;;84.97;43.03;;;16.60;99.90;;;;;;5033709;28;20030;-63
2021/06/06 06:05:39;;;;;;;82.18;43.05;;;16.60;99.90;;;;;;5033461;28;20065;-63
2021/06/06 06:08:23;;;;;;;89.13;42.63;;;16.60;99.90;;;;;;5033216;28;20069;-64
2021/06/06 06:10:51;;;;;;;82.82;41.20;;;16.60;99.90;;;;;;5032508;28;20091;-64
2021/06/06 06:13:20;;;;;;;85.22;41.72;;;16.60;99.90;;;;;;5033214;28;20053;-63
2021/06/06 06:15:46;;;;;;;87.55;41.97;;;16.50;99.90;;;;;;5033301;28;20036;-64
2021/06/06 06:18:14;;;;;;;78.55;39.13;;;16.50;99.90;;;;;;5033172;28;20116;-65
2021/06/06 06:20:41;;;;;;;76.93;39.72;;;16.60;99.90;;;;;;5048426;28;20119;-64
2021/06/06 06:23:07;;;;;;;84.80;43.58;;;16.60;99.90;;;;;;5048112;28;20416;-63
2021/06/06 06:25:33;;;;;;;88.13;43.47;;;16.70;99.90;;;;;;5031980;28;20033;-67
2021/06/06 06:28:00;;;;;;;80.53;41.05;;;16.70;99.90;;;;;;5016892;28;20048;-67
2021/06/06 06:30:32;;;;;;;84.53;40.92;;;16.60;99.90;;;;;;5036317;28;20045;-67
2021/06/06 06:32:58;;;;;;;80.95;41.90;;;16.60;99.90;;;;;;5046870;28;20029;-68
2021/06/06 06:35:25;;;;;;;84.65;41.85;;;16.60;99.90;;;;;;5053070;28;20077;-68
2021/06/06 06:37:51;;;;;;;84.95;41.72;;;16.60;99.90;;;;;;5052910;28;20025;-67
2021/06/06 06:40:20;;;;;;;86.30;41.65;;;16.60;99.90;;;;;;5052633;28;20568;-68
2021/06/06 06:42:46;;;;;;;80.22;39.88;;;16.60;99.90;;;;;;5051393;28;20036;-66
2021/06/06 06:45:19;;;;;;;76.13;39.70;;;16.70;99.90;;;;;;5052820;28;20068;-65
2021/06/06 06:47:46;;;;;;;76.45;38.13;;;16.70;99.90;;;;;;5051719;28;20037;-65
2021/06/06 06:50:14;;;;;;;72.65;38.50;;;16.70;99.90;;;;;;5051297;28;20040;-67
2021/06/06 06:52:40;;;;;;;78.18;37.03;;;16.90;99.90;;;;;;5050994;28;20116;-65
2021/06/06 06:55:11;;;;;;;73.85;36.42;;;16.90;99.90;;;;;;5052126;28;20041;-65
2021/06/06 06:57:37;;;;;;;;;;;17.00;99.90;;;;;;5013384;28;20025;-66
2021/06/06 07:00:06;;;;;;;71.78;35.80;;;17.20;99.90;;;;;;5012529;28;19913;-66
2021/06/06 07:02:32;;;;;;;61.85;31.83;;;17.30;99.90;;;;;;5012581;28;20088;-67
2021/06/06 07:04:58;;;;;;;55.95;30.75;;;17.40;99.90;;;;;;5027655;28;20567;-64
2021/06/06 07:07:24;;;;;;;64.47;33.65;;;17.50;99.90;;;;;;5028068;28;20048;-64
2021/06/06 07:09:50;;;;;;;62.70;30.17;;;17.70;99.90;;;;;;5012816;28;20084;-64
2021/06/06 07:12:17;;;;;;;51.15;28.60;;;17.80;99.90;;;;;;5012324;28;20036;-65
2021/06/06 07:14:43;;;;;;;55.45;28.15;;;17.90;99.90;;;;;;5027841;28;20034;-64
2021/06/06 07:17:08;;;;;;;55.03;30.17;;;18.20;99.90;;;;;;5012538;28;20555;-66
2021/06/06 07:19:34;;;;;;;46.67;26.52;;;18.30;99.90;;;;;;5011347;28;20562;-64
2021/06/06 07:22:00;;;;;;;50.30;28.42;;;18.30;99.90;;;;;;5012136;28;20026;-65
2021/06/06 07:24:26;;;;;;;41.30;24.38;;;18.50;99.90;;;;;;5027790;28;20387;-65
2021/06/06 07:26:52;;;;;;;49.13;26.25;;;18.80;99.90;;;;;;5055822;28;20021;-64
2021/06/06 07:29:24;;;;;;;48.17;27.42;;;19.10;99.90;;;;;;5050545;28;20059;-63
2021/06/06 07:31:55;;;;;;;49.88;27.88;;;18.90;99.90;;;;;;5052335;28;20167;-63
2021/06/06 07:34:27;;;;;;;42.58;25.23;;;18.90;99.90;;;;;;5051088;28;20028;-63
2021/06/06 07:36:59;;;;;;;50.20;27.45;;;19.00;99.90;;;;;;5051055;28;20068;-64
2021/06/06 07:39:29;;;;;;;52.33;27.92;;;18.90;99.90;;;;;;5050881;28;20520;-69
2021/06/06 07:41:55;;;;;;;52.20;27.02;;;18.70;99.90;;;;;;5050814;28;20037;-70
2021/06/06 07:44:21;;;;;;;50.03;28.40;;;18.50;99.90;;;;;;5050993;28;20043;-70
2021/06/06 07:46:48;;;;;;;50.67;26.10;;;18.30;99.90;;;;;;5051859;28;20029;-71
2021/06/06 07:49:15;;;;;;;49.45;26.98;;;18.30;99.90;;;;;;5051859;28;20106;-70
2021/06/06 07:51:41;;;;;;;49.63;25.73;;;18.20;99.90;;;;;;5050670;28;20128;-70
2021/06/06 07:54:07;;;;;;;48.88;26.67;;;18.10;99.90;;;;;;5050772;28;20509;-69
2021/06/06 07:56:34;;;;;;;49.42;28.15;;;18.00;99.90;;;;;;5040479;28;20030;-70
2021/06/06 07:59:00;;;;;;;45.83;26.85;;;17.90;99.90;;;;;;5031822;28;20491;-70
2021/06/06 08:01:26;;;;;;;46.47;25.77;;;17.90;99.90;;;;;;5031799;28;20025;-70
2021/06/06 08:03:52;;;;;;;48.60;26.45;;;18.00;99.90;;;;;;5032065;28;20038;-70
2021/06/06 08:06:20;;;;;;;42.65;24.75;;;18.20;99.90;;;;;;5031695;28;20029;-69
2021/06/06 08:08:46;;;;;;;41.08;23.45;;;18.30;99.90;;;;;;5046869;28;20041;-69
2021/06/06 08:11:13;;;;;;;42.60;23.83;;;18.20;99.90;;;;;;5031290;28;20026;-69
2021/06/06 08:13:39;;;;;;;44.05;24.38;;;18.20;99.90;;;;;;5046966;28;20061;-69
2021/06/06 08:16:08;;;;;;;38.42;23.70;;;18.30;99.90;;;;;;5031305;28;20146;-69
2021/06/06 08:18:46;;;;;;;44.60;23.95;;;18.50;99.90;;;;;;5046619;28;20038;-68
2021/06/06 08:21:24;;;;;;;41.45;23.38;;;18.60;99.90;;;;;;5046504;28;20034;-70
2021/06/06 08:23:50;;;;;;;41.22;22.33;;;18.70;99.90;;;;;;5046503;28;20029;-70
2021/06/06 08:26:19;;;;;;;36.45;20.48;;;18.60;99.90;;;;;;5046223;28;20114;-69
2021/06/06 08:28:47;;;;;;;38.95;22.25;;;18.80;99.90;;;;;;5045878;28;20052;-70
2021/06/06 08:31:17;;;;;;;34.97;19.85;;;18.90;99.90;;;;;;5045801;28;20363;-70
2021/06/06 08:33:43;;;;;;;34.83;19.63;;;19.10;99.90;;;;;;5032852;28;20111;-69
2021/06/06 08:36:27;;;;;;;32.70;19.08;;;19.10;99.90;;;;;;5052625;28;20029;-70
2021/06/06 08:38:54;;;;;;;31.33;17.55;;;19.20;99.90;;;;;;5053098;28;20120;-70
2021/06/06 08:41:27;;;;;;;29.25;17.40;;;19.50;99.90;;;;;;5052796;28;20044;-69
2021/06/06 08:44:30;;;;;;;24.65;15.38;;;19.60;99.90;;;;;;5053143;28;20028;-70
2021/06/06 08:47:12;;;;;;;26.45;16.27;;;19.80;99.90;;;;;;5053838;28;20063;-70
2021/06/06 08:49:50;;;;;;;24.42;15.73;;;19.90;99.90;;;;;;5054671;28;20032;-69
2021/06/06 08:52:28;;;;;;;25.02;15.88;;;19.80;99.90;;;;;;5054571;28;20410;-69
2021/06/06 08:55:07;;;;;;;23.48;14.07;;;19.80;99.90;;;;;;5054687;28;20060;-70
2021/06/06 08:57:52;;;;;;;23.13;14.30;;;19.80;99.90;;;;;;5035031;28;20567;-69
2021/06/06 09:00:30;;;;;;;24.45;13.43;;;19.80;99.90;;;;;;5034322;28;20037;-69
2021/06/06 09:03:13;;;;;;;20.92;13.38;;;19.90;99.90;;;;;;5033440;28;20064;-70
2021/06/06 09:05:48;;;;;;;22.52;13.95;;;20.00;99.90;;;;;;5033585;28;20029;-69
2021/06/06 09:08:23;;;;;;;20.17;13.65;;;19.90;99.90;;;;;;5032753;28;20030;-70
2021/06/06 09:10:58;;;;;;;19.52;13.50;;;19.90;99.90;;;;;;5033372;28;20115;-70
2021/06/06 09:13:31;;;;;;;22.77;13.57;;;19.70;99.90;;;;;;5033367;28;20029;-70
2021/06/06 09:16:22;;;;;;;22.83;13.57;;;19.70;99.90;;;;;;5034479;28;20087;-70
2021/06/06 09:19:13;;;;;;;20.50;12.37;;;19.70;99.90;;;;;;5033082;28;20095;-70
2021/06/06 09:22:00;;;;;;;;;;;19.60;99.90;;;;;;5032746;28;20048;-71
2021/06/06 09:24:46;;;;;;;26.00;14.55;;;19.50;99.90;;;;;;5033783;28;19909;-76
2021/06/06 09:27:25;;;;;;;22.52;13.35;;;19.50;99.90;;;;;;5049690;28;20032;-72
2021/06/06 09:30:11;;;;;;;22.73;12.75;;;19.60;99.90;;;;;;5052142;28;20053;-70
2021/06/06 09:32:37;;;;;;;23.05;15.00;;;19.80;99.90;;;;;;5052135;28;20369;-70
2021/06/06 09:35:21;;;;;;;21.25;13.85;;;19.90;99.90;;;;;;5052930;28;20089;-71
2021/06/06 09:38:18;;;;;;;22.48;13.38;;;20.00;99.90;;;;;;5054174;28;20037;-71
2021/06/06 09:40:52;;;;;;;20.85;14.50;;;20.10;99.90;;;;;;5053305;28;20033;-71
2021/06/06 09:43:34;;;;;;;21.95;13.63;;;20.10;99.90;;;;;;5052575;28;20112;-71
2021/06/06 09:46:18;;;;;;;20.67;12.95;;;20.10;99.90;;;;;;5053521;28;20040;-71
2021/06/06 09:48:49;;;;;;;20.65;13.30;;;20.30;99.90;;;;;;5052532;28;20037;-71
2021/06/06 09:51:34;;;;;;;20.80;13.52;;;20.40;99.90;;;;;;5053666;28;20112;-71
2021/06/06 09:54:15;;;;;;;20.70;13.40;;;20.40;99.90;;;;;;5035027;28;20069;-71
2021/06/06 09:56:51;;;;;;;21.13;13.15;;;20.50;99.90;;;;;;5040409;28;20477;-72
2021/06/06 09:59:33;;;;;;;20.55;13.43;;;20.60;99.90;;;;;;5032469;28;20080;-71
2021/06/06 10:02:32;;;;;;;21.10;13.52;;;20.50;99.90;;;;;;5031418;28;20504;-71
2021/06/06 10:05:16;;;;;;;22.42;13.13;;;20.50;99.90;;;;;;5032338;28;20037;-70
2021/06/06 10:08:18;;;;;;;19.20;12.55;;;20.40;99.90;;;;;;5033356;28;20044;-71
2021/06/06 10:10:52;;;;;;;25.58;13.98;;;20.40;99.90;;;;;;5030591;28;20041;-70
2021/06/06 10:13:32;;;;;;;21.58;13.75;;;20.30;99.90;;;;;;5032971;28;20532;-71
2021/06/06 10:16:20;;;;;;;18.48;11.93;;;20.30;99.90;;;;;;5032291;28;20144;-71
2021/06/06 10:18:57;;;;;;;21.38;12.50;;;20.40;99.90;;;;;;5031970;28;20038;-71
2021/06/06 10:21:33;;;;;;;21.08;11.77;;;20.70;99.90;;;;;;5032165;28;20041;-71
2021/06/06 10:24:17;;;;;;;20.85;11.85;;;20.90;99.90;;;;;;5031881;28;20440;-71
2021/06/06 10:26:55;;;;;;;21.27;12.68;;;21.00;99.90;;;;;;5044815;28;20029;-71
2021/06/06 10:29:43;;;;;;;18.08;12.23;;;21.10;99.90;;;;;;5051396;28;20056;-71
2021/06/06 10:32:43;;;;;;;20.13;12.95;;;21.00;99.90;;;;;;5053237;28;20512;-71
2021/06/06 10:35:12;;;;;;;23.33;13.40;;;21.00;99.90;;;;;;5051979;28;20037;-71
2021/06/06 10:37:41;;;;;;;21.50;13.93;;;21.10;99.90;;;;;;5051710;28;20029;-71
2021/06/06 10:40:50;;;;;;;21.30;13.00;;;21.00;99.90;;;;;;5048482;28;20025;-71
2021/06/06 10:43:48;;;;;;;18.48;11.88;;;21.00;99.90;;;;;;5052650;28;20147;-71
2021/06/06 10:46:24;;;;;;;20.92;12.75;;;21.00;99.90;;;;;;5052943;28;20031;-71
2021/06/06 10:49:30;;;;;;;17.27;11.27;;;21.10;99.90;;;;;;5052643;28;20024;-71
2021/06/06 10:52:21;;;;;;;16.00;10.02;;;21.20;99.90;;;;;;5035466;28;20128;-70
2021/06/06 10:54:54;;;;;;;15.80;10.10;;;21.60;99.90;;;;;;5051058;28;20028;-69
2021/06/06 10:57:36;;;;;;;16.27;9.95;;;21.70;99.90;;;;;;5031988;28;20092;-70
2021/06/06 11:00:02;;;;;;;14.45;10.05;;;21.90;99.90;;;;;;5031079;28;20569;-68
2021/06/06 11:02:52;;;;;;;15.93;9.63;;;22.10;99.90;;;;;;5032642;28;20077;-70
2021/06/06 11:05:51;;;;;;;14.07;9.00;;;22.30;99.90;;;;;;5031632;28;20465;-71
2021/06/06 11:08:39;;;;;;;12.43;8.35;;;22.30;99.90;;;;;;5031370;28;20037;-67
2021/06/06 11:11:13;;;;;;;12.32;8.05;;;22.10;99.90;;;;;;5032369;28;20104;-68
2021/06/06 11:13:45;;;;;;;14.45;8.68;;;21.80;99.90;;;;;;5032419;28;20037;-67
2021/06/06 11:16:16;;;;;;;12.10;7.53;;;22.20;99.90;;;;;;5032153;28;20034;-68
2021/06/06 11:18:50;;;;;;;12.23;7.43;;;22.60;99.90;;;;;;5032239;28;20098;-68
2021/06/06 11:21:33;;;;;;;11.75;7.63;;;22.80;99.90;;;;;;5032177;28;20413;-75
2021/06/06 11:24:04;;;;;;;11.90;7.32;;;22.50;99.90;;;;;;5031001;28;20033;-70
2021/06/06 11:26:31;;;;;;;15.30;8.93;;;22.50;99.90;;;;;;5041732;28;20542;-77
2021/06/06 11:29:14;;;;;;;13.18;9.05;;;22.30;99.90;;;;;;5051853;28;20057;-69
2021/06/06 11:32:19;;;;;;;13.25;8.02;;;22.10;99.90;;;;;;5050703;28;20033;-70
2021/06/06 11:35:26;;;;;;;12.48;8.05;;;21.80;99.90;;;;;;5052047;28;20032;-69
2021/06/06 11:38:11;;;;;;;15.10;7.97;;;21.70;99.90;;;;;;5036304;28;20044;-72
2021/06/06 11:40:49;;;;;;;11.23;7.40;;;21.90;99.90;;;;;;5050807;28;20489;-72
2021/06/06 11:43:45;;;;;;;11.82;8.18;;;22.20;99.90;;;;;;5050632;28;20083;-72
2021/06/06 11:46:54;;;;;;;12.82;7.40;;;22.30;99.90;;;;;;5050787;28;20067;-72
2021/06/06 11:49:52;;;;;;;11.00;7.47;;;22.70;99.90;;;;;;5043345;28;20045;-70
2021/06/06 11:52:57;;;;;;;12.02;7.28;;;22.80;99.90;;;;;;5038486;28;20121;-85
2021/06/06 11:55:31;;;;;;;10.82;7.47;;;23.00;99.90;;;;;;5032496;28;20029;-75
2021/06/06 11:58:15;;;;;;;11.68;6.75;;;22.90;99.90;;;;;;5050565;28;20397;-76
2021/06/06 12:01:11;;;;;;;10.15;6.72;;;22.90;99.90;;;;;;5051984;28;20039;-77
2021/06/06 12:03:41;;;;;;;13.15;7.47;;;22.90;99.90;;;;;;5051965;28;20032;-72
2021/06/06 12:06:20;;;;;;;12.10;7.37;;;22.90;99.90;;;;;;5051384;28;20480;-74
2021/06/06 12:08:58;;;;;;;12.30;7.30;;;22.80;99.90;;;;;;5069889;28;20143;-83
2021/06/06 12:11:27;;;;;;;12.27;6.43;;;22.80;99.90;;;;;;5071008;28;20029;-76
2021/06/06 12:14:17;;;;;;;12.32;8.88;;;22.90;99.90;;;;;;5054528;28;20090;-68
2021/06/06 12:16:49;;;;;;;14.23;8.70;;;23.10;99.90;;;;;;5055547;28;20072;-73
2021/06/06 12:19:19;;;;;;;12.30;8.32;;;23.10;99.90;;;;;;5055676;28;20041;-73
2021/06/06 12:21:48;;;;;;;11.80;8.05;;;23.10;99.90;;;;;;5054496;28;20418;-73
2021/06/06 12:24:26;;;;;;;13.27;8.10;;;23.00;99.90;;;;;;5055341;28;20044;-74
2021/06/06 12:27:03;;;;;;;13.90;7.85;;;23.00;99.90;;;;;;5054086;28;20033;-75
2021/06/06 12:29:39;;;;;;;11.73;7.30;;;23.00;99.90;;;;;;5054969;28;20132;-75
2021/06/06 12:32:10;;;;;;;12.10;7.55;;;23.10;99.90;;;;;;5054330;28;20060;-77
2021/06/06 12:34:37;;;;;;;11.95;7.88;;;22.80;99.90;;;;;;5036802;28;20091;-72
2021/06/06 12:37:16;;;;;;;14.38;7.70;;;22.70;99.90;;;;;;5054692;28;20640;-71
2021/06/06 12:39:44;;;;;;;10.60;7.43;;;22.70;99.90;;;;;;5054078;28;20401;-72
2021/06/06 12:42:12;;;;;;;10.88;7.30;;;22.80;99.90;;;;;;5055126;28;20021;-72
2021/06/06 12:44:51;;;;;;;10.68;7.40;;;22.80;99.90;;;;;;5053741;28;20086;-70
2021/06/06 12:47:40;;;;;;;13.68;8.52;;;22.80;99.90;;;;;;5053853;28;20029;-70
2021/06/06 12:50:12;;;;;;;17.73;8.80;;;22.70;99.90;;;;;;5054163;28;20025;-71
2021/06/06 12:52:57;;;;;;;13.25;7.93;;;22.60;99.90;;;;;;5070034;28;20469;-71
2021/06/06 12:55:30;;;;;;;13.73;8.80;;;22.50;99.90;;;;;;5053503;28;20370;-71
2021/06/06 12:58:06;;;;;;;15.77;8.90;;;22.30;99.90;;;;;;5053228;28;20500;-72
2021/06/06 13:00:41;;;;;;;12.48;8.23;;;22.10;99.90;;;;;;5055045;28;20492;-72